Weather at Pompano Beach Airpark

Public forecast

Using degrees Fahrenheit for public forecast. Weather courtesy of forecast.io.

Current aviation weather report (METAR) for Pompano Beach Airpark

Retrieved 2021/01/22 04:53 UTC (51 minutes ago):

KPMP 220453Z AUTO 28004KT 10SM CLR 17/15 A3006 RMK AO2 SLP179 T01720150 402500122

Aviation forecast (TAF) for Pompano Beach Airpark

Forecast is more than 12 hours old.

Retrieved 2020/02/03 18:20 UTC (12 months ago):

TAF KPMP 031720Z 0318/0418 13007KT P6SM SKC FM040000 VRB03KT P6SM SKC FM041400 15011KT P6SM FEW030